Veidnes — LLSD — position and weather

sailwx.info

Track history (hours):
 
Tides and Currents Weather Stations Pressure Air Temp Water Temp Dewpoint Dewpoint Depression Visibility Wind Speed Wind Dir Waves Ship Positions

Veidnes

Last reported at 2017-Aug-18 00:59 UTC. Time now 2017-Aug-18 01:03 UTC.
Position N 68°01' E 015°20'.

Length 51 m; draft 5 m.

Type: Cargo ship. MMSI: 259237000.

Date/timePositionNaut miles runAvg speedWind from/ knotsBaromVisibWave heightAir tempDewpointWater temp
2017-Aug-18 00:59N 68°01' E 015°20'0 0.0
2017-Aug-18 00:29N 68°01' E 015°20'0 0.0
2017-Aug-17 23:53N 68°01' E 015°20'0 0.0
2017-Aug-17 23:29N 68°01' E 015°20'1 2.8
2017-Aug-17 23:01N 68°02' E 015°17'4 8.1
2017-Aug-17 22:30N 68°06' E 015°18'5 9.6
2017-Aug-17 22:00N 68°10' E 015°25'5 9.4
2017-Aug-17 21:30N 68°13' E 015°35'5 9.6
2017-Aug-17 21:00N 68°16' E 015°44'5 9.7
2017-Aug-17 20:30N 68°19' E 015°55'5 9.7
2017-Aug-17 20:00N 68°22' E 016°05'12 9.3
2017-Aug-17 18:41N 68°26' E 016°37'1 7.7
2017-Aug-17 18:30N 68°26' E 016°40'3 5.7
2017-Aug-17 18:00N 68°25' E 016°48'0 0.0
2017-Aug-17 17:31N 68°25' E 016°48'1 1.5
2017-Aug-17 17:00N 68°25' E 016°46'611.3
2017-Aug-17 16:30N 68°25' E 016°31'611.6
2017-Aug-17 16:00N 68°23' E 016°16'611.4
2017-Aug-17 15:30N 68°21' E 016°02'511.0
2017-Aug-17 15:00N 68°17' E 015°50'610.9
2017-Aug-17 14:30N 68°14' E 015°39'611.4
2017-Aug-17 14:00N 68°10' E 015°27'611.6
2017-Aug-17 13:30N 68°06' E 015°18'510.3
2017-Aug-17 13:00N 68°00' E 015°20'1 1.1
2017-Aug-17 12:29N 68°01' E 015°20'0 0.1
2017-Aug-17 11:59N 68°01' E 015°20'0 0.0
2017-Aug-17 11:26N 68°01' E 015°20'0 0.0
2017-Aug-17 10:56N 68°01' E 015°20'0 0.0
2017-Aug-17 10:26N 68°01' E 015°20'0 0.0
2017-Aug-17 09:56N 68°01' E 015°20'0 0.0
2017-Aug-17 09:26N 68°01' E 015°20'0 0.0
2017-Aug-17 08:56N 68°01' E 015°20'0 0.0
2017-Aug-17 08:26N 68°01' E 015°20'0 0.0
2017-Aug-17 07:56N 68°01' E 015°20'0 0.0
2017-Aug-17 07:26N 68°01' E 015°20'0 0.0
2017-Aug-17 06:56N 68°01' E 015°20'0 0.0
2017-Aug-17 06:26N 68°01' E 015°20'0 0.0
2017-Aug-17 05:56N 68°01' E 015°20'0 0.0
2017-Aug-17 05:26N 68°01' E 015°20'0 0.0
2017-Aug-17 04:56N 68°01' E 015°20'0 0.0
2017-Aug-17 04:26N 68°01' E 015°20'0 0.0
2017-Aug-17 03:56N 68°01' E 015°20'0 0.0
2017-Aug-17 03:26N 68°01' E 015°20'0 0.0
2017-Aug-17 02:50N 68°01' E 015°20'0 0.0
2017-Aug-17 02:14N 68°01' E 015°20'0 0.0
2017-Aug-17 01:56N 68°01' E 015°20'0 0.0
2017-Aug-17 01:26N 68°01' E 015°20'0 0.0
2017-Aug-17 00:56N 68°01' E 015°20'0 0.0
2017-Aug-17 00:30N 68°01' E 015°20'3 5.2
2017-Aug-17 00:00N 68°03' E 015°16'4 8.6
2017-Aug-16 23:30N 68°07' E 015°20'4 8.7
2017-Aug-16 23:00N 68°10' E 015°27'5 9.1
2017-Aug-16 22:30N 68°13' E 015°37'5 9.1
2017-Aug-16 22:00N 68°16' E 015°46'4 9.0
2017-Aug-16 21:30N 68°19' E 015°55'4 8.6
2017-Aug-16 21:00N 68°22' E 016°05'5 9.5
2017-Aug-16 20:30N 68°23' E 016°17'5 9.8
2017-Aug-16 20:00N 68°25' E 016°29'5 9.9
2017-Aug-16 19:30N 68°26' E 016°42'2 4.4
2017-Aug-16 19:00N 68°25' E 016°48'0 0.0
2017-Aug-16 18:30N 68°25' E 016°48'0 0.0
2017-Aug-16 18:00N 68°25' E 016°48'0 0.1
2017-Aug-16 17:30N 68°25' E 016°48'4 8.4
2017-Aug-16 17:00N 68°26' E 016°36'5 9.5
2017-Aug-16 16:30N 68°24' E 016°24'5 9.5
2017-Aug-16 16:00N 68°23' E 016°12'510.3
2017-Aug-16 15:30N 68°20' E 015°60'510.9
2017-Aug-16 15:00N 68°17' E 015°49'610.8
2017-Aug-16 14:30N 68°13' E 015°37'510.9
2017-Aug-16 14:00N 68°10' E 015°26'611.2
2017-Aug-16 13:30N 68°05' E 015°17'5 9.5
2017-Aug-16 13:00N 68°01' E 015°21'0 0.8
2017-Aug-16 12:29N 68°01' E 015°20'0 0.0
2017-Aug-16 11:59N 68°01' E 015°20'0 0.0
2017-Aug-16 11:29N 68°01' E 015°20'0 0.0
2017-Aug-16 10:58N 68°01' E 015°20'0 0.0
2017-Aug-16 10:28N 68°01' E 015°20'0 0.0
2017-Aug-16 09:55N 68°01' E 015°20'0 0.0
2017-Aug-16 09:28N 68°01' E 015°20'0 0.0
2017-Aug-16 08:58N 68°01' E 015°20'0 0.0
2017-Aug-16 08:28N 68°01' E 015°20'0 0.0
2017-Aug-16 07:58N 68°01' E 015°20'0 0.0
2017-Aug-16 07:28N 68°01' E 015°20'0 0.0
2017-Aug-16 06:58N 68°01' E 015°20'0 0.0
2017-Aug-16 06:28N 68°01' E 015°20'0 0.0
2017-Aug-16 05:58N 68°01' E 015°20'0 0.0
2017-Aug-16 05:28N 68°01' E 015°20'0 0.0
2017-Aug-16 04:58N 68°01' E 015°20'0 0.0
2017-Aug-16 04:28N 68°01' E 015°20'0 0.0
2017-Aug-16 03:58N 68°01' E 015°20'0 0.0
2017-Aug-16 03:28N 68°01' E 015°20'0 0.0
2017-Aug-16 02:52N 68°01' E 015°20'0 0.0
2017-Aug-16 02:28N 68°01' E 015°20'0 0.0
2017-Aug-16 01:58N 68°01' E 015°20'0 0.0
2017-Aug-16 01:16N 68°01' E 015°20'0 0.0
2017-Aug-16 00:58N 68°01' E 015°20'0 0.0
2017-Aug-16 00:28N 68°01' E 015°20'0 0.0
2017-Aug-15 23:43N 68°01' E 015°20'0 0.0
2017-Aug-15 23:22N 68°01' E 015°20'1 1.5
2017-Aug-15 23:00N 68°00' E 015°20'4 7.9
2017-Aug-15 22:30N 68°04' E 015°16'4 8.7
2017-Aug-15 22:00N 68°08' E 015°21'5 9.3
2017-Aug-15 21:30N 68°11' E 015°29'5 9.2
2017-Aug-15 21:00N 68°14' E 015°39'5 9.2
2017-Aug-15 20:29N 68°17' E 015°49'4 9.1
2017-Aug-15 20:00N 68°20' E 015°58'5 8.9
2017-Aug-15 19:30N 68°22' E 016°09'4 8.9
2017-Aug-15 19:00N 68°24' E 016°20'4 8.9
2017-Aug-15 18:30N 68°25' E 016°31'5 9.2
2017-Aug-15 18:00N 68°26' E 016°44'2 3.3
2017-Aug-15 17:30N 68°25' E 016°48'0 0.0
2017-Aug-15 17:00N 68°25' E 016°48'0 0.0
2017-Aug-15 16:30N 68°25' E 016°48'1 2.5
2017-Aug-15 15:59N 68°26' E 016°45'510.8
2017-Aug-15 15:30N 68°25' E 016°31'612.0
2017-Aug-15 15:00N 68°23' E 016°15'611.7
2017-Aug-15 14:30N 68°21' E 016°01'611.7
2017-Aug-15 14:00N 68°17' E 015°49'611.6
2017-Aug-15 13:30N 68°13' E 015°37'611.6
2017-Aug-15 13:00N 68°09' E 015°25'611.6
2017-Aug-15 12:29N 68°04' E 015°16'4 7.6
2017-Aug-15 12:00N 68°01' E 015°20'0 0.0
2017-Aug-15 11:25N 68°01' E 015°20'0 0.0
2017-Aug-15 10:55N 68°01' E 015°20'0 0.0
2017-Aug-15 10:25N 68°01' E 015°20'0 0.0
2017-Aug-15 09:55N 68°01' E 015°20'0 0.0
2017-Aug-15 09:28N 68°01' E 015°20'0 0.0
2017-Aug-15 08:55N 68°01' E 015°20'0 0.0
2017-Aug-15 08:25N 68°01' E 015°20'0 0.0
2017-Aug-15 07:43N 68°01' E 015°20'0 0.0
2017-Aug-15 07:19N 68°01' E 015°20'0 0.0
2017-Aug-15 06:55N 68°01' E 015°20'0 0.0
2017-Aug-15 06:25N 68°01' E 015°20'0 0.0
2017-Aug-15 05:55N 68°01' E 015°20'0 0.0
2017-Aug-15 05:28N 68°01' E 015°20'0 0.0
2017-Aug-15 04:55N 68°01' E 015°20'0 0.0
2017-Aug-15 04:25N 68°01' E 015°20'0 0.0
2017-Aug-15 03:55N 68°01' E 015°20'0 0.0
2017-Aug-15 03:25N 68°01' E 015°20'0 0.0
2017-Aug-15 02:55N 68°01' E 015°20'0 0.0
2017-Aug-15 02:25N 68°01' E 015°20'1 1.5
2017-Aug-15 02:00N 68°01' E 015°19'4 8.5
2017-Aug-15 01:30N 68°05' E 015°16'4 8.1
2017-Aug-15 01:00N 68°08' E 015°22'4 7.9
2017-Aug-15 00:30N 68°11' E 015°29'4 8.3
2017-Aug-15 00:00N 68°14' E 015°38'4 8.7
2017-Aug-14 23:30N 68°16' E 015°47'5 9.0
2017-Aug-14 23:00N 68°19' E 015°56'4 8.8
2017-Aug-14 22:30N 68°22' E 016°06'4 8.5
2017-Aug-14 22:00N 68°23' E 016°16'4 8.2
2017-Aug-14 21:30N 68°25' E 016°27'4 8.4
2017-Aug-14 21:00N 68°26' E 016°38'4 7.4
2017-Aug-14 20:30N 68°25' E 016°48'0 0.0
2017-Aug-14 20:00N 68°25' E 016°48'0 0.0
2017-Aug-14 19:30N 68°25' E 016°48'0 0.0
2017-Aug-14 19:01N 68°25' E 016°48'0 0.0
2017-Aug-14 18:30N 68°25' E 016°48'0 0.5
2017-Aug-14 18:00N 68°25' E 016°48'611.0
2017-Aug-14 17:30N 68°25' E 016°33'612.5
2017-Aug-14 17:00N 68°23' E 016°17'612.3
2017-Aug-14 16:30N 68°21' E 016°01'611.9
2017-Aug-14 16:00N 68°17' E 015°49'611.9
2017-Aug-14 15:30N 68°13' E 015°36'21 8.9
2017-Aug-14 13:07N 67°54' E 015°11'0 1.6
2017-Aug-14 13:00N 67°54' E 015°12'5 9.0
2017-Aug-14 12:30N 67°57' E 015°20'4 6.4
2017-Aug-14 11:57N 68°01' E 015°20'0 0.0
2017-Aug-14 11:27N 68°01' E 015°20'0 0.0
2017-Aug-14 10:56N 68°01' E 015°20'0 0.0
2017-Aug-14 10:26N 68°01' E 015°20'0 0.0
2017-Aug-14 09:56N 68°01' E 015°20'0 0.0
2017-Aug-14 09:29N 68°01' E 015°20'0 0.0
2017-Aug-14 08:56N 68°01' E 015°20'0 0.0
2017-Aug-14 08:26N 68°01' E 015°20'0 0.0
2017-Aug-14 07:56N 68°01' E 015°20'0 0.0
2017-Aug-14 07:14N 68°01' E 015°20'0 0.0
2017-Aug-14 06:56N 68°01' E 015°20'0 0.0
2017-Aug-14 06:20N 68°01' E 015°20'0 0.0
2017-Aug-14 05:56N 68°01' E 015°20'0 0.0
2017-Aug-14 05:26N 68°01' E 015°20'0 0.0
2017-Aug-14 04:56N 68°01' E 015°20'0 0.0
2017-Aug-14 04:26N 68°01' E 015°20'0 0.0
2017-Aug-14 03:56N 68°01' E 015°20'0 0.0
2017-Aug-14 03:26N 68°01' E 015°20'0 0.0
2017-Aug-14 02:56N 68°01' E 015°20'0 0.0
2017-Aug-14 02:26N 68°01' E 015°20'0 0.0
2017-Aug-14 01:56N 68°01' E 015°20'0 0.0
2017-Aug-14 01:30N 68°01' E 015°20'2 3.2
2017-Aug-14 01:00N 68°02' E 015°16'4 8.3
2017-Aug-14 00:30N 68°06' E 015°17'4 7.7
2017-Aug-14 00:00N 68°09' E 015°23'4 7.5
2017-Aug-13 23:30N 68°11' E 015°31'4 7.7
2017-Aug-13 23:00N 68°14' E 015°39'4 7.8
2017-Aug-13 22:30N 68°16' E 015°47'4 7.9
2017-Aug-13 22:00N 68°19' E 015°55'4 8.0
2017-Aug-13 21:30N 68°21' E 016°04'4 8.2
2017-Aug-13 21:00N 68°23' E 016°14'4 8.2
2017-Aug-13 20:29N 68°24' E 016°25'4 8.1
2017-Aug-13 20:00N 68°26' E 016°35'4 8.6
2017-Aug-13 19:30N 68°25' E 016°46'1 1.4
2017-Aug-13 19:00N 68°25' E 016°48'0 0.0
2017-Aug-13 18:30N 68°25' E 016°48'0 0.0
2017-Aug-13 18:00N 68°25' E 016°48'3 5.0
2017-Aug-13 17:30N 68°26' E 016°41'510.9
2017-Aug-13 17:00N 68°25' E 016°27'611.8
2017-Aug-13 16:30N 68°23' E 016°11'3 7.0
2017-Aug-13 16:00N 68°25' E 016°04'4 8.3
2017-Aug-13 15:30N 68°29' E 016°08'4 7.9
2017-Aug-13 15:00N 68°33' E 016°13'4 7.3
2017-Aug-13 14:30N 68°34' E 016°22'3 6.6
2017-Aug-13 14:00N 68°34' E 016°32'4 8.1
2017-Aug-13 13:30N 68°38' E 016°35'4 8.5
2017-Aug-13 13:00N 68°42' E 016°40'4 8.5
2017-Aug-13 12:30N 68°46' E 016°40'3 6.8
2017-Aug-13 12:00N 68°48' E 016°33'0 0.0
2017-Aug-13 11:30N 68°48' E 016°33'0 0.0
2017-Aug-13 10:59N 68°48' E 016°33'0 0.0
2017-Aug-13 10:31N 68°48' E 016°33'0 0.0
2017-Aug-13 10:00N 68°48' E 016°33'0 0.0
2017-Aug-13 09:30N 68°48' E 016°33'0 0.0
2017-Aug-13 09:00N 68°48' E 016°33'0 0.0
2017-Aug-13 08:30N 68°48' E 016°33'0 0.0
2017-Aug-13 08:00N 68°48' E 016°33'0 0.0
2017-Aug-13 07:30N 68°48' E 016°33'0 0.0
2017-Aug-13 07:00N 68°48' E 016°33'0 0.0
2017-Aug-13 06:30N 68°48' E 016°33'0 0.0
2017-Aug-13 06:00N 68°48' E 016°33'0 0.0
2017-Aug-13 05:30N 68°48' E 016°33'0 0.0
2017-Aug-13 05:00N 68°48' E 016°33'0 0.0
2017-Aug-13 04:30N 68°48' E 016°33'0 0.0
2017-Aug-13 04:00N 68°48' E 016°33'0 0.0
2017-Aug-13 03:30N 68°48' E 016°33'0 0.0
2017-Aug-13 03:00N 68°48' E 016°33'0 0.0
2017-Aug-13 02:30N 68°48' E 016°33'0 0.0
2017-Aug-13 02:00N 68°48' E 016°33'0 0.0
2017-Aug-13 01:30N 68°48' E 016°33'0 0.0
2017-Aug-13 01:00N 68°48' E 016°33'0 0.0
2017-Aug-13 00:30N 68°48' E 016°33'0 0.0
2017-Aug-13 00:00N 68°48' E 016°33'0 0.0
2017-Aug-12 23:30N 68°48' E 016°33'0 0.0
2017-Aug-12 23:00N 68°48' E 016°33'0 0.0
2017-Aug-12 22:30N 68°48' E 016°33'0 0.0
2017-Aug-12 22:00N 68°48' E 016°33'0 0.0
2017-Aug-12 21:30N 68°48' E 016°33'0 0.0
2017-Aug-12 21:00N 68°48' E 016°33'0 0.0
2017-Aug-12 20:29N 68°48' E 016°33'0 0.0
2017-Aug-12 20:00N 68°48' E 016°33'0 0.0
2017-Aug-12 19:30N 68°48' E 016°33'0 0.0
2017-Aug-12 18:59N 68°48' E 016°33'0 0.0
2017-Aug-12 18:30N 68°48' E 016°33'0 0.0
2017-Aug-12 18:00N 68°48' E 016°33'0 0.0
2017-Aug-12 17:30N 68°48' E 016°33'0 0.0
2017-Aug-12 17:00N 68°48' E 016°33'0 0.0
2017-Aug-12 16:30N 68°48' E 016°33'0 0.0
2017-Aug-12 16:00N 68°48' E 016°33'0 0.0
2017-Aug-12 15:30N 68°48' E 016°33'0 0.0
2017-Aug-12 15:00N 68°48' E 016°33'0 0.0
2017-Aug-12 14:30N 68°48' E 016°33'0 0.0
2017-Aug-12 13:59N 68°48' E 016°33'0 0.0
2017-Aug-12 13:30N 68°48' E 016°33'0 0.0
2017-Aug-12 13:00N 68°48' E 016°33'0 0.0
2017-Aug-12 12:30N 68°48' E 016°33'0 0.0
2017-Aug-12 12:00N 68°48' E 016°33'0 0.0
2017-Aug-12 11:30N 68°48' E 016°33'1 2.5
2017-Aug-12 11:00N 68°49' E 016°35'5 9.3
2017-Aug-12 10:30N 68°53' E 016°26'611.1
2017-Aug-12 10:00N 68°56' E 016°15'510.6
2017-Aug-12 09:30N 68°58' E 016°01'610.9
2017-Aug-12 09:00N 68°59' E 015°46'4 7.3
2017-Aug-12 08:30N 68°57' E 015°37'1 2.6
2017-Aug-12 08:00N 68°56' E 015°36'5 9.8
2017-Aug-12 07:30N 68°52' E 015°28'4 8.6
2017-Aug-12 07:00N 68°54' E 015°17'0 0.2
2017-Aug-12 06:31N 68°54' E 015°17'1 2.2
2017-Aug-12 06:00N 68°54' E 015°20'4 8.2
2017-Aug-12 05:30N 68°58' E 015°22'4 7.6
2017-Aug-12 05:00N 69°01' E 015°15'5 9.2
2017-Aug-12 04:30N 69°01' E 015°02'5 9.3
2017-Aug-12 04:00N 68°57' E 014°59'2 3.8
2017-Aug-12 03:31N 68°55' E 014°59'0 0.0
2017-Aug-12 03:01N 68°55' E 014°59'0 0.0
2017-Aug-12 02:30N 68°55' E 014°59'1 2.8
2017-Aug-12 02:01N 68°56' E 014°59'5 9.1
2017-Aug-12 01:30N 69°01' E 015°01'4 8.1
2017-Aug-12 01:00N 69°02' E 015°12'5 8.9
2017-Aug-12 00:30N 68°59' E 015°22'5 9.6
2017-Aug-12 00:00N 68°54' E 015°18'0 0.8
2017-Aug-11 23:29N 68°54' E 015°17'1 2.8
2017-Aug-11 23:00N 68°54' E 015°21'4 8.8
2017-Aug-11 22:30N 68°59' E 015°22'4 8.4
2017-Aug-11 22:00N 69°01' E 015°13'5 9.0
2017-Aug-11 21:30N 69°01' E 015°00'5 9.4
2017-Aug-11 21:00N 68°56' E 014°59'1 2.2
2017-Aug-11 20:31N 68°55' E 014°59'0 0.0
2017-Aug-11 20:00N 68°55' E 014°59'0 0.1
2017-Aug-11 19:30N 68°55' E 014°59'4 8.5
2017-Aug-11 19:00N 68°59' E 014°59'4 9.3
2017-Aug-11 18:31N 69°02' E 015°09'510.5
2017-Aug-11 18:00N 68°60' E 015°22'611.9
2017-Aug-11 17:30N 68°54' E 015°24'611.6
2017-Aug-11 17:00N 68°48' E 015°26'612.3
2017-Aug-11 16:30N 68°42' E 015°26'510.9
2017-Aug-11 16:00N 68°37' E 015°18'611.2
2017-Aug-11 15:30N 68°33' E 015°10'510.6
2017-Aug-11 15:00N 68°27' E 015°11'1211.7
2017-Aug-11 14:00N 68°17' E 014°58'510.3
2017-Aug-11 13:30N 68°12' E 014°59'511.1
2017-Aug-11 13:00N 68°07' E 015°07'511.1
2017-Aug-11 12:30N 68°02' E 015°15'2 3.9
2017-Aug-11 11:55N 68°01' E 015°20'0 0.0
2017-Aug-11 11:19N 68°01' E 015°20'0 0.0
2017-Aug-11 10:55N 68°01' E 015°20'0 0.0
2017-Aug-11 10:25N 68°01' E 015°20'0 0.0
2017-Aug-11 09:55N 68°01' E 015°20'0 0.0
2017-Aug-11 09:25N 68°01' E 015°20'0 0.0
2017-Aug-11 08:55N 68°01' E 015°20'0 0.0
2017-Aug-11 08:25N 68°01' E 015°20'0 0.0
2017-Aug-11 07:55N 68°01' E 015°20'0 0.0
2017-Aug-11 07:25N 68°01' E 015°20'0 0.0
2017-Aug-11 06:55N 68°01' E 015°20'0 0.0
2017-Aug-11 06:25N 68°01' E 015°20'0 0.0
2017-Aug-11 05:55N 68°01' E 015°20'0 0.0
2017-Aug-11 05:25N 68°01' E 015°20'0 0.0
2017-Aug-11 04:58N 68°01' E 015°20'0 0.0
2017-Aug-11 04:19N 68°01' E 015°20'0 0.0
2017-Aug-11 03:49N 68°01' E 015°20'0 0.0
2017-Aug-11 03:25N 68°01' E 015°20'0 0.0
2017-Aug-11 02:58N 68°01' E 015°20'0 0.0
2017-Aug-11 02:25N 68°01' E 015°20'0 0.0
2017-Aug-11 01:55N 68°01' E 015°20'0 0.0
2017-Aug-11 01:25N 68°01' E 015°20'0 0.0
2017-Aug-11 00:55N 68°01' E 015°20'0 0.0
2017-Aug-11 00:25N 68°01' E 015°20'0 0.0
2017-Aug-10 23:55N 68°01' E 015°20'0 0.0
2017-Aug-10 23:30N 68°01' E 015°20'2 3.0
2017-Aug-10 22:59N 68°02' E 015°17'4 7.9
2017-Aug-10 22:30N 68°06' E 015°18'4 8.3
2017-Aug-10 22:00N 68°09' E 015°23'4 9.0
2017-Aug-10 21:30N 68°12' E 015°33'4 9.1
2017-Aug-10 21:00N 68°15' E 015°42'5 9.0
2017-Aug-10 20:30N 68°18' E 015°52'4 8.5
2017-Aug-10 19:59N 68°20' E 016°01'4 7.9
2017-Aug-10 19:30N 68°22' E 016°10'4 8.5
2017-Aug-10 19:00N 68°24' E 016°21'5 9.1
2017-Aug-10 18:30N 68°25' E 016°32'5 9.3
2017-Aug-10 18:00N 68°26' E 016°45'1 2.4
2017-Aug-10 17:30N 68°25' E 016°48'0 0.0
2017-Aug-10 17:00N 68°25' E 016°48'0 0.0
2017-Aug-10 16:30N 68°25' E 016°48'4 8.7
2017-Aug-10 16:00N 68°26' E 016°36'510.2
2017-Aug-10 15:30N 68°24' E 016°23'510.0
2017-Aug-10 15:00N 68°22' E 016°11'510.0
2017-Aug-10 14:30N 68°20' E 015°59'610.6
2017-Aug-10 13:58N 68°16' E 015°47'510.5
2017-Aug-10 13:30N 68°13' E 015°37'510.5
2017-Aug-10 13:01N 68°10' E 015°26'510.9
2017-Aug-10 12:31N 68°05' E 015°17'5 9.9
2017-Aug-10 12:00N 68°00' E 015°20'1 1.0
2017-Aug-10 11:26N 68°01' E 015°20'0 0.0
2017-Aug-10 10:56N 68°01' E 015°20'0 0.0
2017-Aug-10 10:26N 68°01' E 015°20'0 0.0
2017-Aug-10 09:56N 68°01' E 015°20'0 0.0
2017-Aug-10 09:26N 68°01' E 015°20'0 0.0
2017-Aug-10 08:56N 68°01' E 015°20'0 0.0
2017-Aug-10 08:26N 68°01' E 015°20'0 0.0
2017-Aug-10 07:56N 68°01' E 015°20'0 0.0
2017-Aug-10 07:20N 68°01' E 015°20'0 0.0
2017-Aug-10 06:56N 68°01' E 015°20'0 0.0
2017-Aug-10 06:20N 68°01' E 015°20'0 0.0
2017-Aug-10 05:56N 68°01' E 015°20'0 0.0
2017-Aug-10 05:26N 68°01' E 015°20'0 0.0
2017-Aug-10 04:56N 68°01' E 015°20'0 0.0
2017-Aug-10 04:26N 68°01' E 015°20'0 0.0
2017-Aug-10 04:00N 68°01' E 015°20'0 0.0
2017-Aug-10 03:29N 68°01' E 015°20'0 0.0
2017-Aug-10 03:00N 68°01' E 015°20'0 0.0
2017-Aug-10 02:30N 68°01' E 015°20'0 0.0
2017-Aug-10 02:00N 68°01' E 015°20'0 0.0
2017-Aug-10 01:30N 68°01' E 015°20'2 4.8
2017-Aug-10 01:00N 67°59' E 015°20'4 8.0
2017-Aug-10 00:30N 67°55' E 015°16'4 8.2
2017-Aug-10 00:00N 67°55' E 015°05'4 8.7
2017-Aug-09 23:30N 67°54' E 014°54'4 9.0
2017-Aug-09 23:00N 67°52' E 014°43'5 9.1
2017-Aug-09 22:30N 67°49' E 014°34'5 9.2
2017-Aug-09 22:00N 67°44' E 014°31'4 8.2
2017-Aug-09 21:30N 67°41' E 014°39'4 7.6
2017-Aug-09 21:00N 67°39' E 014°47'5 9.3
2017-Aug-09 20:30N 67°38' E 014°59'3 6.7
2017-Aug-09 20:00N 67°39' E 015°07'0 0.0
2017-Aug-09 19:28N 67°39' E 015°07'0 0.0
2017-Aug-09 19:00N 67°39' E 015°07'2 4.0
2017-Aug-09 18:30N 67°38' E 015°03'5 9.4
2017-Aug-09 18:00N 67°39' E 014°51'4 7.8
2017-Aug-09 17:30N 67°41' E 014°43'3 6.1
2017-Aug-09 17:00N 67°44' E 014°46'0 0.0
2017-Aug-09 16:31N 67°44' E 014°46'0 0.0
2017-Aug-09 16:00N 67°44' E 014°46'1 2.9
2017-Aug-09 15:30N 67°45' E 014°44'5 9.5
2017-Aug-09 15:00N 67°47' E 014°32'510.2
2017-Aug-09 14:30N 67°51' E 014°40'510.5
2017-Aug-09 14:00N 67°53' E 014°52'510.1
2017-Aug-09 13:30N 67°55' E 015°05'2 4.4
2017-Aug-09 12:59N 67°54' E 015°11'0 0.5
2017-Aug-09 12:30N 67°54' E 015°12'5 9.4
2017-Aug-09 12:00N 67°58' E 015°20'3 5.6
2017-Aug-09 11:25N 68°01' E 015°20'0 0.0
2017-Aug-09 10:54N 68°01' E 015°20'0 0.0
2017-Aug-09 10:27N 68°01' E 015°20'0 0.0
2017-Aug-09 09:51N 68°01' E 015°20'0 0.0
2017-Aug-09 09:27N 68°01' E 015°20'0 0.0
2017-Aug-09 08:57N 68°01' E 015°20'0 0.0
2017-Aug-09 08:30N 68°01' E 015°20'0 0.0
2017-Aug-09 07:54N 68°01' E 015°20'0 0.0
2017-Aug-09 07:27N 68°01' E 015°20'0 0.0
2017-Aug-09 06:57N 68°01' E 015°20'0 0.0
2017-Aug-09 06:27N 68°01' E 015°20'0 0.0
2017-Aug-09 05:54N 68°01' E 015°20'0 0.0
2017-Aug-09 05:27N 68°01' E 015°20'0 0.0
2017-Aug-09 04:57N 68°01' E 015°20'0 0.0
2017-Aug-09 04:27N 68°01' E 015°20'0 0.0
2017-Aug-09 03:57N 68°01' E 015°20'0 0.0
2017-Aug-09 03:27N 68°01' E 015°20'0 0.0
2017-Aug-09 01:57N 68°01' E 015°20'0 0.0
2017-Aug-09 01:27N 68°01' E 015°20'0 0.0
2017-Aug-09 01:00N 68°01' E 015°20'3 6.3
2017-Aug-09 00:31N 67°58' E 015°20'4 8.7
2017-Aug-09 00:00N 67°54' E 015°13'5 9.5
2017-Aug-08 23:30N 67°55' E 015°00'5 9.8
2017-Aug-08 23:00N 67°53' E 014°49'5 9.8
2017-Aug-08 22:30N 67°50' E 014°37'5 9.6
2017-Aug-08 22:00N 67°46' E 014°32'4 8.3
2017-Aug-08 21:30N 67°42' E 014°36'4 8.3
2017-Aug-08 21:00N 67°39' E 014°45'5 9.5
2017-Aug-08 20:30N 67°39' E 014°57'510.0
2017-Aug-08 20:00N 67°42' E 015°08'5 9.8
2017-Aug-08 19:30N 67°45' E 015°19'3 5.7
2017-Aug-08 18:59N 67°44' E 015°26'0 0.0
2017-Aug-08 18:30N 67°44' E 015°26'0 0.0
2017-Aug-08 17:59N 67°44' E 015°26'0 0.0
2017-Aug-08 17:30N 67°44' E 015°26'0 0.0
2017-Aug-08 17:00N 67°44' E 015°26'4 7.0
2017-Aug-08 16:30N 67°44' E 015°17'510.1
2017-Aug-08 16:00N 67°42' E 015°06'510.3
2017-Aug-08 15:30N 67°39' E 014°54'5 9.3
2017-Aug-08 15:00N 67°40' E 014°42'5 9.6
2017-Aug-08 14:30N 67°43' E 014°32'510.5
2017-Aug-08 14:00N 67°48' E 014°32'510.9
2017-Aug-08 13:30N 67°52' E 014°43'611.2
2017-Aug-08 12:59N 67°54' E 014°57'510.6
2017-Aug-08 12:30N 67°54' E 015°11'5 9.6
2017-Aug-08 12:00N 67°58' E 015°20'3 6.5
2017-Aug-08 11:28N 68°01' E 015°20'0 0.0
2017-Aug-08 10:58N 68°01' E 015°20'0 0.0
2017-Aug-08 10:28N 68°01' E 015°20'0 0.0
2017-Aug-08 09:55N 68°01' E 015°20'0 0.0
2017-Aug-08 09:28N 68°01' E 015°20'0 0.0
2017-Aug-08 08:55N 68°01' E 015°20'0 0.0
2017-Aug-08 08:28N 68°01' E 015°20'0 0.0
2017-Aug-08 07:55N 68°01' E 015°20'0 0.0
2017-Aug-08 07:25N 68°01' E 015°20'0 0.0
2017-Aug-08 06:55N 68°01' E 015°20'0 0.0
2017-Aug-08 06:25N 68°01' E 015°20'0 0.0
2017-Aug-08 05:58N 68°01' E 015°20'0 0.0
2017-Aug-08 05:28N 68°01' E 015°20'0 0.0
2017-Aug-08 04:55N 68°01' E 015°20'0 0.0
2017-Aug-08 04:28N 68°01' E 015°20'0 0.0
2017-Aug-08 03:58N 68°01' E 015°20'0 0.0
2017-Aug-08 03:25N 68°01' E 015°20'0 0.0
2017-Aug-08 02:55N 68°01' E 015°20'0 0.0
2017-Aug-08 02:25N 68°01' E 015°20'0 0.0
2017-Aug-08 01:58N 68°01' E 015°20'0 0.0
2017-Aug-08 01:25N 68°01' E 015°20'  
Track history (hours):
 
Tides and Currents Weather Stations Pressure Air Temp Water Temp Dewpoint Dewpoint Depression Visibility Wind Speed Wind Dir Waves Ship Positions

Veidnes

Last reported at 2017-Aug-18 00:59 UTC. Time now 2017-Aug-18 01:03 UTC.
Position N 68°01' E 015°20'.

Length 51 m; draft 5 m.

Type: Cargo ship. MMSI: 259237000.

Date/timePositionNaut miles runAvg speedWind from/ knotsBaromVisibWave heightAir tempDewpointWater temp
2017-Aug-18 00:59N 68°01' E 015°20'0 0.0
2017-Aug-18 00:29N 68°01' E 015°20'0 0.0
2017-Aug-17 23:53N 68°01' E 015°20'0 0.0
2017-Aug-17 23:29N 68°01' E 015°20'1 2.8
2017-Aug-17 23:01N 68°02' E 015°17'4 8.1
2017-Aug-17 22:30N 68°06' E 015°18'5 9.6
2017-Aug-17 22:00N 68°10' E 015°25'5 9.4
2017-Aug-17 21:30N 68°13' E 015°35'5 9.6
2017-Aug-17 21:00N 68°16' E 015°44'5 9.7
2017-Aug-17 20:30N 68°19' E 015°55'5 9.7
2017-Aug-17 20:00N 68°22' E 016°05'12 9.3
2017-Aug-17 18:41N 68°26' E 016°37'1 7.7
2017-Aug-17 18:30N 68°26' E 016°40'3 5.7
2017-Aug-17 18:00N 68°25' E 016°48'0 0.0
2017-Aug-17 17:31N 68°25' E 016°48'1 1.5
2017-Aug-17 17:00N 68°25' E 016°46'611.3
2017-Aug-17 16:30N 68°25' E 016°31'611.6
2017-Aug-17 16:00N 68°23' E 016°16'611.4
2017-Aug-17 15:30N 68°21' E 016°02'511.0
2017-Aug-17 15:00N 68°17' E 015°50'610.9
2017-Aug-17 14:30N 68°14' E 015°39'611.4
2017-Aug-17 14:00N 68°10' E 015°27'611.6
2017-Aug-17 13:30N 68°06' E 015°18'510.3
2017-Aug-17 13:00N 68°00' E 015°20'1 1.1
2017-Aug-17 12:29N 68°01' E 015°20'0 0.1
2017-Aug-17 11:59N 68°01' E 015°20'0 0.0
2017-Aug-17 11:26N 68°01' E 015°20'0 0.0
2017-Aug-17 10:56N 68°01' E 015°20'0 0.0
2017-Aug-17 10:26N 68°01' E 015°20'0 0.0
2017-Aug-17 09:56N 68°01' E 015°20'0 0.0
2017-Aug-17 09:26N 68°01' E 015°20'0 0.0
2017-Aug-17 08:56N 68°01' E 015°20'0 0.0
2017-Aug-17 08:26N 68°01' E 015°20'0 0.0
2017-Aug-17 07:56N 68°01' E 015°20'0 0.0
2017-Aug-17 07:26N 68°01' E 015°20'0 0.0
2017-Aug-17 06:56N 68°01' E 015°20'0 0.0
2017-Aug-17 06:26N 68°01' E 015°20'0 0.0
2017-Aug-17 05:56N 68°01' E 015°20'0 0.0
2017-Aug-17 05:26N 68°01' E 015°20'0 0.0
2017-Aug-17 04:56N 68°01' E 015°20'0 0.0
2017-Aug-17 04:26N 68°01' E 015°20'0 0.0
2017-Aug-17 03:56N 68°01' E 015°20'0 0.0
2017-Aug-17 03:26N 68°01' E 015°20'0 0.0
2017-Aug-17 02:50N 68°01' E 015°20'0 0.0
2017-Aug-17 02:14N 68°01' E 015°20'0 0.0
2017-Aug-17 01:56N 68°01' E 015°20'0 0.0
2017-Aug-17 01:26N 68°01' E 015°20'0 0.0
2017-Aug-17 00:56N 68°01' E 015°20'0 0.0
2017-Aug-17 00:30N 68°01' E 015°20'3 5.2
2017-Aug-17 00:00N 68°03' E 015°16'4 8.6
2017-Aug-16 23:30N 68°07' E 015°20'4 8.7
2017-Aug-16 23:00N 68°10' E 015°27'5 9.1
2017-Aug-16 22:30N 68°13' E 015°37'5 9.1
2017-Aug-16 22:00N 68°16' E 015°46'4 9.0
2017-Aug-16 21:30N 68°19' E 015°55'4 8.6
2017-Aug-16 21:00N 68°22' E 016°05'5 9.5
2017-Aug-16 20:30N 68°23' E 016°17'5 9.8
2017-Aug-16 20:00N 68°25' E 016°29'5 9.9
2017-Aug-16 19:30N 68°26' E 016°42'2 4.4
2017-Aug-16 19:00N 68°25' E 016°48'0 0.0
2017-Aug-16 18:30N 68°25' E 016°48'0 0.0
2017-Aug-16 18:00N 68°25' E 016°48'0 0.1
2017-Aug-16 17:30N 68°25' E 016°48'4 8.4
2017-Aug-16 17:00N 68°26' E 016°36'5 9.5
2017-Aug-16 16:30N 68°24' E 016°24'5 9.5
2017-Aug-16 16:00N 68°23' E 016°12'510.3
2017-Aug-16 15:30N 68°20' E 015°60'510.9
2017-Aug-16 15:00N 68°17' E 015°49'610.8
2017-Aug-16 14:30N 68°13' E 015°37'510.9
2017-Aug-16 14:00N 68°10' E 015°26'611.2
2017-Aug-16 13:30N 68°05' E 015°17'5 9.5
2017-Aug-16 13:00N 68°01' E 015°21'0 0.8
2017-Aug-16 12:29N 68°01' E 015°20'0 0.0
2017-Aug-16 11:59N 68°01' E 015°20'0 0.0
2017-Aug-16 11:29N 68°01' E 015°20'0 0.0
2017-Aug-16 10:58N 68°01' E 015°20'0 0.0
2017-Aug-16 10:28N 68°01' E 015°20'0 0.0
2017-Aug-16 09:55N 68°01' E 015°20'0 0.0
2017-Aug-16 09:28N 68°01' E 015°20'0 0.0
2017-Aug-16 08:58N 68°01' E 015°20'0 0.0
2017-Aug-16 08:28N 68°01' E 015°20'0 0.0
2017-Aug-16 07:58N 68°01' E 015°20'0 0.0
2017-Aug-16 07:28N 68°01' E 015°20'0 0.0
2017-Aug-16 06:58N 68°01' E 015°20'0 0.0
2017-Aug-16 06:28N 68°01' E 015°20'0 0.0
2017-Aug-16 05:58N 68°01' E 015°20'0 0.0
2017-Aug-16 05:28N 68°01' E 015°20'0 0.0
2017-Aug-16 04:58N 68°01' E 015°20'0 0.0
2017-Aug-16 04:28N 68°01' E 015°20'0 0.0
2017-Aug-16 03:58N 68°01' E 015°20'0 0.0
2017-Aug-16 03:28N 68°01' E 015°20'0 0.0
2017-Aug-16 02:52N 68°01' E 015°20'0 0.0
2017-Aug-16 02:28N 68°01' E 015°20'0 0.0
2017-Aug-16 01:58N 68°01' E 015°20'0 0.0
2017-Aug-16 01:16N 68°01' E 015°20'0 0.0
2017-Aug-16 00:58N 68°01' E 015°20'0 0.0
2017-Aug-16 00:28N 68°01' E 015°20'0 0.0
2017-Aug-15 23:43N 68°01' E 015°20'0 0.0
2017-Aug-15 23:22N 68°01' E 015°20'1 1.5
2017-Aug-15 23:00N 68°00' E 015°20'4 7.9
2017-Aug-15 22:30N 68°04' E 015°16'4 8.7
2017-Aug-15 22:00N 68°08' E 015°21'5 9.3
2017-Aug-15 21:30N 68°11' E 015°29'5 9.2
2017-Aug-15 21:00N 68°14' E 015°39'5 9.2
2017-Aug-15 20:29N 68°17' E 015°49'4 9.1
2017-Aug-15 20:00N 68°20' E 015°58'5 8.9
2017-Aug-15 19:30N 68°22' E 016°09'4 8.9
2017-Aug-15 19:00N 68°24' E 016°20'4 8.9
2017-Aug-15 18:30N 68°25' E 016°31'5 9.2
2017-Aug-15 18:00N 68°26' E 016°44'2 3.3
2017-Aug-15 17:30N 68°25' E 016°48'0 0.0
2017-Aug-15 17:00N 68°25' E 016°48'0 0.0
2017-Aug-15 16:30N 68°25' E 016°48'1 2.5
2017-Aug-15 15:59N 68°26' E 016°45'510.8
2017-Aug-15 15:30N 68°25' E 016°31'612.0
2017-Aug-15 15:00N 68°23' E 016°15'611.7
2017-Aug-15 14:30N 68°21' E 016°01'611.7
2017-Aug-15 14:00N 68°17' E 015°49'611.6
2017-Aug-15 13:30N 68°13' E 015°37'611.6
2017-Aug-15 13:00N 68°09' E 015°25'611.6
2017-Aug-15 12:29N 68°04' E 015°16'4 7.6
2017-Aug-15 12:00N 68°01' E 015°20'0 0.0
2017-Aug-15 11:25N 68°01' E 015°20'0 0.0
2017-Aug-15 10:55N 68°01' E 015°20'0 0.0
2017-Aug-15 10:25N 68°01' E 015°20'0 0.0
2017-Aug-15 09:55N 68°01' E 015°20'0 0.0
2017-Aug-15 09:28N 68°01' E 015°20'0 0.0
2017-Aug-15 08:55N 68°01' E 015°20'0 0.0
2017-Aug-15 08:25N 68°01' E 015°20'0 0.0
2017-Aug-15 07:43N 68°01' E 015°20'0 0.0
2017-Aug-15 07:19N 68°01' E 015°20'0 0.0
2017-Aug-15 06:55N 68°01' E 015°20'0 0.0
2017-Aug-15 06:25N 68°01' E 015°20'0 0.0
2017-Aug-15 05:55N 68°01' E 015°20'0 0.0
2017-Aug-15 05:28N 68°01' E 015°20'0 0.0
2017-Aug-15 04:55N 68°01' E 015°20'0 0.0
2017-Aug-15 04:25N 68°01' E 015°20'0 0.0
2017-Aug-15 03:55N 68°01' E 015°20'0 0.0
2017-Aug-15 03:25N 68°01' E 015°20'0 0.0
2017-Aug-15 02:55N 68°01' E 015°20'0 0.0
2017-Aug-15 02:25N 68°01' E 015°20'1 1.5
2017-Aug-15 02:00N 68°01' E 015°19'4 8.5
2017-Aug-15 01:30N 68°05' E 015°16'4 8.1
2017-Aug-15 01:00N 68°08' E 015°22'4 7.9
2017-Aug-15 00:30N 68°11' E 015°29'4 8.3
2017-Aug-15 00:00N 68°14' E 015°38'4 8.7
2017-Aug-14 23:30N 68°16' E 015°47'5 9.0
2017-Aug-14 23:00N 68°19' E 015°56'4 8.8
2017-Aug-14 22:30N 68°22' E 016°06'4 8.5
2017-Aug-14 22:00N 68°23' E 016°16'4 8.2
2017-Aug-14 21:30N 68°25' E 016°27'4 8.4
2017-Aug-14 21:00N 68°26' E 016°38'4 7.4
2017-Aug-14 20:30N 68°25' E 016°48'0 0.0
2017-Aug-14 20:00N 68°25' E 016°48'0 0.0
2017-Aug-14 19:30N 68°25' E 016°48'0 0.0
2017-Aug-14 19:01N 68°25' E 016°48'0 0.0
2017-Aug-14 18:30N 68°25' E 016°48'0 0.5
2017-Aug-14 18:00N 68°25' E 016°48'611.0
2017-Aug-14 17:30N 68°25' E 016°33'612.5
2017-Aug-14 17:00N 68°23' E 016°17'612.3
2017-Aug-14 16:30N 68°21' E 016°01'611.9
2017-Aug-14 16:00N 68°17' E 015°49'611.9
2017-Aug-14 15:30N 68°13' E 015°36'21 8.9
2017-Aug-14 13:07N 67°54' E 015°11'0 1.6
2017-Aug-14 13:00N 67°54' E 015°12'5 9.0
2017-Aug-14 12:30N 67°57' E 015°20'4 6.4
2017-Aug-14 11:57N 68°01' E 015°20'0 0.0
2017-Aug-14 11:27N 68°01' E 015°20'0 0.0
2017-Aug-14 10:56N 68°01' E 015°20'0 0.0
2017-Aug-14 10:26N 68°01' E 015°20'0 0.0
2017-Aug-14 09:56N 68°01' E 015°20'0 0.0
2017-Aug-14 09:29N 68°01' E 015°20'0 0.0
2017-Aug-14 08:56N 68°01' E 015°20'0 0.0
2017-Aug-14 08:26N 68°01' E 015°20'0 0.0
2017-Aug-14 07:56N 68°01' E 015°20'0 0.0
2017-Aug-14 07:14N 68°01' E 015°20'0 0.0
2017-Aug-14 06:56N 68°01' E 015°20'0 0.0
2017-Aug-14 06:20N 68°01' E 015°20'0 0.0
2017-Aug-14 05:56N 68°01' E 015°20'0 0.0
2017-Aug-14 05:26N 68°01' E 015°20'0 0.0
2017-Aug-14 04:56N 68°01' E 015°20'0 0.0
2017-Aug-14 04:26N 68°01' E 015°20'0 0.0
2017-Aug-14 03:56N 68°01' E 015°20'0 0.0
2017-Aug-14 03:26N 68°01' E 015°20'0 0.0
2017-Aug-14 02:56N 68°01' E 015°20'0 0.0
2017-Aug-14 02:26N 68°01' E 015°20'0 0.0
2017-Aug-14 01:56N 68°01' E 015°20'0 0.0
2017-Aug-14 01:30N 68°01' E 015°20'2 3.2
2017-Aug-14 01:00N 68°02' E 015°16'4 8.3
2017-Aug-14 00:30N 68°06' E 015°17'4 7.7
2017-Aug-14 00:00N 68°09' E 015°23'4 7.5
2017-Aug-13 23:30N 68°11' E 015°31'4 7.7
2017-Aug-13 23:00N 68°14' E 015°39'4 7.8
2017-Aug-13 22:30N 68°16' E 015°47'4 7.9
2017-Aug-13 22:00N 68°19' E 015°55'4 8.0
2017-Aug-13 21:30N 68°21' E 016°04'4 8.2
2017-Aug-13 21:00N 68°23' E 016°14'4 8.2
2017-Aug-13 20:29N 68°24' E 016°25'4 8.1
2017-Aug-13 20:00N 68°26' E 016°35'4 8.6
2017-Aug-13 19:30N 68°25' E 016°46'1 1.4
2017-Aug-13 19:00N 68°25' E 016°48'0 0.0
2017-Aug-13 18:30N 68°25' E 016°48'0 0.0
2017-Aug-13 18:00N 68°25' E 016°48'3 5.0
2017-Aug-13 17:30N 68°26' E 016°41'510.9
2017-Aug-13 17:00N 68°25' E 016°27'611.8
2017-Aug-13 16:30N 68°23' E 016°11'3 7.0
2017-Aug-13 16:00N 68°25' E 016°04'4 8.3
2017-Aug-13 15:30N 68°29' E 016°08'4 7.9
2017-Aug-13 15:00N 68°33' E 016°13'4 7.3
2017-Aug-13 14:30N 68°34' E 016°22'3 6.6
2017-Aug-13 14:00N 68°34' E 016°32'4 8.1
2017-Aug-13 13:30N 68°38' E 016°35'4 8.5
2017-Aug-13 13:00N 68°42' E 016°40'4 8.5
2017-Aug-13 12:30N 68°46' E 016°40'3 6.8
2017-Aug-13 12:00N 68°48' E 016°33'0 0.0
2017-Aug-13 11:30N 68°48' E 016°33'0 0.0
2017-Aug-13 10:59N 68°48' E 016°33'0 0.0
2017-Aug-13 10:31N 68°48' E 016°33'0 0.0
2017-Aug-13 10:00N 68°48' E 016°33'0 0.0
2017-Aug-13 09:30N 68°48' E 016°33'0 0.0
2017-Aug-13 09:00N 68°48' E 016°33'0 0.0
2017-Aug-13 08:30N 68°48' E 016°33'0 0.0
2017-Aug-13 08:00N 68°48' E 016°33'0 0.0
2017-Aug-13 07:30N 68°48' E 016°33'0 0.0
2017-Aug-13 07:00N 68°48' E 016°33'0 0.0
2017-Aug-13 06:30N 68°48' E 016°33'0 0.0
2017-Aug-13 06:00N 68°48' E 016°33'0 0.0
2017-Aug-13 05:30N 68°48' E 016°33'0 0.0
2017-Aug-13 05:00N 68°48' E 016°33'0 0.0
2017-Aug-13 04:30N 68°48' E 016°33'0 0.0
2017-Aug-13 04:00N 68°48' E 016°33'0 0.0
2017-Aug-13 03:30N 68°48' E 016°33'0 0.0
2017-Aug-13 03:00N 68°48' E 016°33'0 0.0
2017-Aug-13 02:30N 68°48' E 016°33'0 0.0
2017-Aug-13 02:00N 68°48' E 016°33'0 0.0
2017-Aug-13 01:30N 68°48' E 016°33'0 0.0
2017-Aug-13 01:00N 68°48' E 016°33'0 0.0
2017-Aug-13 00:30N 68°48' E 016°33'0 0.0
2017-Aug-13 00:00N 68°48' E 016°33'0 0.0
2017-Aug-12 23:30N 68°48' E 016°33'0 0.0
2017-Aug-12 23:00N 68°48' E 016°33'0 0.0
2017-Aug-12 22:30N 68°48' E 016°33'0 0.0
2017-Aug-12 22:00N 68°48' E 016°33'0 0.0
2017-Aug-12 21:30N 68°48' E 016°33'0 0.0
2017-Aug-12 21:00N 68°48' E 016°33'0 0.0
2017-Aug-12 20:29N 68°48' E 016°33'0 0.0
2017-Aug-12 20:00N 68°48' E 016°33'0 0.0
2017-Aug-12 19:30N 68°48' E 016°33'0 0.0
2017-Aug-12 18:59N 68°48' E 016°33'0 0.0
2017-Aug-12 18:30N 68°48' E 016°33'0 0.0
2017-Aug-12 18:00N 68°48' E 016°33'0 0.0
2017-Aug-12 17:30N 68°48' E 016°33'0 0.0
2017-Aug-12 17:00N 68°48' E 016°33'0 0.0
2017-Aug-12 16:30N 68°48' E 016°33'0 0.0
2017-Aug-12 16:00N 68°48' E 016°33'0 0.0
2017-Aug-12 15:30N 68°48' E 016°33'0 0.0
2017-Aug-12 15:00N 68°48' E 016°33'0 0.0
2017-Aug-12 14:30N 68°48' E 016°33'0 0.0
2017-Aug-12 13:59N 68°48' E 016°33'0 0.0
2017-Aug-12 13:30N 68°48' E 016°33'0 0.0
2017-Aug-12 13:00N 68°48' E 016°33'0 0.0
2017-Aug-12 12:30N 68°48' E 016°33'0 0.0
2017-Aug-12 12:00N 68°48' E 016°33'0 0.0
2017-Aug-12 11:30N 68°48' E 016°33'1 2.5
2017-Aug-12 11:00N 68°49' E 016°35'5 9.3
2017-Aug-12 10:30N 68°53' E 016°26'611.1
2017-Aug-12 10:00N 68°56' E 016°15'510.6
2017-Aug-12 09:30N 68°58' E 016°01'610.9
2017-Aug-12 09:00N 68°59' E 015°46'4 7.3
2017-Aug-12 08:30N 68°57' E 015°37'1 2.6
2017-Aug-12 08:00N 68°56' E 015°36'5 9.8
2017-Aug-12 07:30N 68°52' E 015°28'4 8.6
2017-Aug-12 07:00N 68°54' E 015°17'0 0.2
2017-Aug-12 06:31N 68°54' E 015°17'1 2.2
2017-Aug-12 06:00N 68°54' E 015°20'4 8.2
2017-Aug-12 05:30N 68°58' E 015°22'4 7.6
2017-Aug-12 05:00N 69°01' E 015°15'5 9.2
2017-Aug-12 04:30N 69°01' E 015°02'5 9.3
2017-Aug-12 04:00N 68°57' E 014°59'2 3.8
2017-Aug-12 03:31N 68°55' E 014°59'0 0.0
2017-Aug-12 03:01N 68°55' E 014°59'0 0.0
2017-Aug-12 02:30N 68°55' E 014°59'1 2.8
2017-Aug-12 02:01N 68°56' E 014°59'5 9.1
2017-Aug-12 01:30N 69°01' E 015°01'4 8.1
2017-Aug-12 01:00N 69°02' E 015°12'5 8.9
2017-Aug-12 00:30N 68°59' E 015°22'5 9.6
2017-Aug-12 00:00N 68°54' E 015°18'0 0.8
2017-Aug-11 23:29N 68°54' E 015°17'1 2.8
2017-Aug-11 23:00N 68°54' E 015°21'4 8.8
2017-Aug-11 22:30N 68°59' E 015°22'4 8.4
2017-Aug-11 22:00N 69°01' E 015°13'5 9.0
2017-Aug-11 21:30N 69°01' E 015°00'5 9.4
2017-Aug-11 21:00N 68°56' E 014°59'1 2.2
2017-Aug-11 20:31N 68°55' E 014°59'0 0.0
2017-Aug-11 20:00N 68°55' E 014°59'0 0.1
2017-Aug-11 19:30N 68°55' E 014°59'4 8.5
2017-Aug-11 19:00N 68°59' E 014°59'4 9.3
2017-Aug-11 18:31N 69°02' E 015°09'510.5
2017-Aug-11 18:00N 68°60' E 015°22'611.9
2017-Aug-11 17:30N 68°54' E 015°24'611.6
2017-Aug-11 17:00N 68°48' E 015°26'612.3
2017-Aug-11 16:30N 68°42' E 015°26'510.9
2017-Aug-11 16:00N 68°37' E 015°18'611.2
2017-Aug-11 15:30N 68°33' E 015°10'510.6
2017-Aug-11 15:00N 68°27' E 015°11'1211.7
2017-Aug-11 14:00N 68°17' E 014°58'510.3
2017-Aug-11 13:30N 68°12' E 014°59'511.1
2017-Aug-11 13:00N 68°07' E 015°07'511.1
2017-Aug-11 12:30N 68°02' E 015°15'2 3.9
2017-Aug-11 11:55N 68°01' E 015°20'0 0.0
2017-Aug-11 11:19N 68°01' E 015°20'0 0.0
2017-Aug-11 10:55N 68°01' E 015°20'0 0.0
2017-Aug-11 10:25N 68°01' E 015°20'0 0.0
2017-Aug-11 09:55N 68°01' E 015°20'0 0.0
2017-Aug-11 09:25N 68°01' E 015°20'0 0.0
2017-Aug-11 08:55N 68°01' E 015°20'0 0.0
2017-Aug-11 08:25N 68°01' E 015°20'0 0.0
2017-Aug-11 07:55N 68°01' E 015°20'0 0.0
2017-Aug-11 07:25N 68°01' E 015°20'0 0.0
2017-Aug-11 06:55N 68°01' E 015°20'0 0.0
2017-Aug-11 06:25N 68°01' E 015°20'0 0.0
2017-Aug-11 05:55N 68°01' E 015°20'0 0.0
2017-Aug-11 05:25N 68°01' E 015°20'0 0.0
2017-Aug-11 04:58N 68°01' E 015°20'0 0.0
2017-Aug-11 04:19N 68°01' E 015°20'0 0.0
2017-Aug-11 03:49N 68°01' E 015°20'0 0.0
2017-Aug-11 03:25N 68°01' E 015°20'0 0.0
2017-Aug-11 02:58N 68°01' E 015°20'0 0.0
2017-Aug-11 02:25N 68°01' E 015°20'0 0.0
2017-Aug-11 01:55N 68°01' E 015°20'0 0.0
2017-Aug-11 01:25N 68°01' E 015°20'0 0.0
2017-Aug-11 00:55N 68°01' E 015°20'0 0.0
2017-Aug-11 00:25N 68°01' E 015°20'0 0.0
2017-Aug-10 23:55N 68°01' E 015°20'0 0.0
2017-Aug-10 23:30N 68°01' E 015°20'2 3.0
2017-Aug-10 22:59N 68°02' E 015°17'4 7.9
2017-Aug-10 22:30N 68°06' E 015°18'4 8.3
2017-Aug-10 22:00N 68°09' E 015°23'4 9.0
2017-Aug-10 21:30N 68°12' E 015°33'4 9.1
2017-Aug-10 21:00N 68°15' E 015°42'5 9.0
2017-Aug-10 20:30N 68°18' E 015°52'4 8.5
2017-Aug-10 19:59N 68°20' E 016°01'4 7.9
2017-Aug-10 19:30N 68°22' E 016°10'4 8.5
2017-Aug-10 19:00N 68°24' E 016°21'5 9.1
2017-Aug-10 18:30N 68°25' E 016°32'5 9.3
2017-Aug-10 18:00N 68°26' E 016°45'1 2.4
2017-Aug-10 17:30N 68°25' E 016°48'0 0.0
2017-Aug-10 17:00N 68°25' E 016°48'0 0.0
2017-Aug-10 16:30N 68°25' E 016°48'4 8.7
2017-Aug-10 16:00N 68°26' E 016°36'510.2
2017-Aug-10 15:30N 68°24' E 016°23'510.0
2017-Aug-10 15:00N 68°22' E 016°11'510.0
2017-Aug-10 14:30N 68°20' E 015°59'610.6
2017-Aug-10 13:58N 68°16' E 015°47'510.5
2017-Aug-10 13:30N 68°13' E 015°37'510.5
2017-Aug-10 13:01N 68°10' E 015°26'510.9
2017-Aug-10 12:31N 68°05' E 015°17'5 9.9
2017-Aug-10 12:00N 68°00' E 015°20'1 1.0
2017-Aug-10 11:26N 68°01' E 015°20'0 0.0
2017-Aug-10 10:56N 68°01' E 015°20'0 0.0
2017-Aug-10 10:26N 68°01' E 015°20'0 0.0
2017-Aug-10 09:56N 68°01' E 015°20'0 0.0
2017-Aug-10 09:26N 68°01' E 015°20'0 0.0
2017-Aug-10 08:56N 68°01' E 015°20'0 0.0
2017-Aug-10 08:26N 68°01' E 015°20'0 0.0
2017-Aug-10 07:56N 68°01' E 015°20'0 0.0
2017-Aug-10 07:20N 68°01' E 015°20'0 0.0
2017-Aug-10 06:56N 68°01' E 015°20'0 0.0
2017-Aug-10 06:20N 68°01' E 015°20'0 0.0
2017-Aug-10 05:56N 68°01' E 015°20'0 0.0
2017-Aug-10 05:26N 68°01' E 015°20'0 0.0
2017-Aug-10 04:56N 68°01' E 015°20'0 0.0
2017-Aug-10 04:26N 68°01' E 015°20'0 0.0
2017-Aug-10 04:00N 68°01' E 015°20'0 0.0
2017-Aug-10 03:29N 68°01' E 015°20'0 0.0
2017-Aug-10 03:00N 68°01' E 015°20'0 0.0
2017-Aug-10 02:30N 68°01' E 015°20'0 0.0
2017-Aug-10 02:00N 68°01' E 015°20'0 0.0
2017-Aug-10 01:30N 68°01' E 015°20'2 4.8
2017-Aug-10 01:00N 67°59' E 015°20'4 8.0
2017-Aug-10 00:30N 67°55' E 015°16'4 8.2
2017-Aug-10 00:00N 67°55' E 015°05'4 8.7
2017-Aug-09 23:30N 67°54' E 014°54'4 9.0
2017-Aug-09 23:00N 67°52' E 014°43'5 9.1
2017-Aug-09 22:30N 67°49' E 014°34'5 9.2
2017-Aug-09 22:00N 67°44' E 014°31'4 8.2
2017-Aug-09 21:30N 67°41' E 014°39'4 7.6
2017-Aug-09 21:00N 67°39' E 014°47'5 9.3
2017-Aug-09 20:30N 67°38' E 014°59'3 6.7
2017-Aug-09 20:00N 67°39' E 015°07'0 0.0
2017-Aug-09 19:28N 67°39' E 015°07'0 0.0
2017-Aug-09 19:00N 67°39' E 015°07'2 4.0
2017-Aug-09 18:30N 67°38' E 015°03'5 9.4
2017-Aug-09 18:00N 67°39' E 014°51'4 7.8
2017-Aug-09 17:30N 67°41' E 014°43'3 6.1
2017-Aug-09 17:00N 67°44' E 014°46'0 0.0
2017-Aug-09 16:31N 67°44' E 014°46'0 0.0
2017-Aug-09 16:00N 67°44' E 014°46'1 2.9
2017-Aug-09 15:30N 67°45' E 014°44'5 9.5
2017-Aug-09 15:00N 67°47' E 014°32'510.2
2017-Aug-09 14:30N 67°51' E 014°40'510.5
2017-Aug-09 14:00N 67°53' E 014°52'510.1
2017-Aug-09 13:30N 67°55' E 015°05'2 4.4
2017-Aug-09 12:59N 67°54' E 015°11'0 0.5
2017-Aug-09 12:30N 67°54' E 015°12'5 9.4
2017-Aug-09 12:00N 67°58' E 015°20'3 5.6
2017-Aug-09 11:25N 68°01' E 015°20'0 0.0
2017-Aug-09 10:54N 68°01' E 015°20'0 0.0
2017-Aug-09 10:27N 68°01' E 015°20'0 0.0
2017-Aug-09 09:51N 68°01' E 015°20'0 0.0
2017-Aug-09 09:27N 68°01' E 015°20'0 0.0
2017-Aug-09 08:57N 68°01' E 015°20'0 0.0
2017-Aug-09 08:30N 68°01' E 015°20'0 0.0
2017-Aug-09 07:54N 68°01' E 015°20'0 0.0
2017-Aug-09 07:27N 68°01' E 015°20'0 0.0
2017-Aug-09 06:57N 68°01' E 015°20'0 0.0
2017-Aug-09 06:27N 68°01' E 015°20'0 0.0
2017-Aug-09 05:54N 68°01' E 015°20'0 0.0
2017-Aug-09 05:27N 68°01' E 015°20'0 0.0
2017-Aug-09 04:57N 68°01' E 015°20'0 0.0
2017-Aug-09 04:27N 68°01' E 015°20'0 0.0
2017-Aug-09 03:57N 68°01' E 015°20'0 0.0
2017-Aug-09 03:27N 68°01' E 015°20'0 0.0
2017-Aug-09 01:57N 68°01' E 015°20'0 0.0
2017-Aug-09 01:27N 68°01' E 015°20'0 0.0
2017-Aug-09 01:00N 68°01' E 015°20'3 6.3
2017-Aug-09 00:31N 67°58' E 015°20'4 8.7
2017-Aug-09 00:00N 67°54' E 015°13'5 9.5
2017-Aug-08 23:30N 67°55' E 015°00'5 9.8
2017-Aug-08 23:00N 67°53' E 014°49'5 9.8
2017-Aug-08 22:30N 67°50' E 014°37'5 9.6
2017-Aug-08 22:00N 67°46' E 014°32'4 8.3
2017-Aug-08 21:30N 67°42' E 014°36'4 8.3
2017-Aug-08 21:00N 67°39' E 014°45'5 9.5
2017-Aug-08 20:30N 67°39' E 014°57'510.0
2017-Aug-08 20:00N 67°42' E 015°08'5 9.8
2017-Aug-08 19:30N 67°45' E 015°19'3 5.7
2017-Aug-08 18:59N 67°44' E 015°26'0 0.0
2017-Aug-08 18:30N 67°44' E 015°26'0 0.0
2017-Aug-08 17:59N 67°44' E 015°26'0 0.0
2017-Aug-08 17:30N 67°44' E 015°26'0 0.0
2017-Aug-08 17:00N 67°44' E 015°26'4 7.0
2017-Aug-08 16:30N 67°44' E 015°17'510.1
2017-Aug-08 16:00N 67°42' E 015°06'510.3
2017-Aug-08 15:30N 67°39' E 014°54'5 9.3
2017-Aug-08 15:00N 67°40' E 014°42'5 9.6
2017-Aug-08 14:30N 67°43' E 014°32'510.5
2017-Aug-08 14:00N 67°48' E 014°32'510.9
2017-Aug-08 13:30N 67°52' E 014°43'611.2
2017-Aug-08 12:59N 67°54' E 014°57'510.6
2017-Aug-08 12:30N 67°54' E 015°11'5 9.6
2017-Aug-08 12:00N 67°58' E 015°20'3 6.5
2017-Aug-08 11:28N 68°01' E 015°20'0 0.0
2017-Aug-08 10:58N 68°01' E 015°20'0 0.0
2017-Aug-08 10:28N 68°01' E 015°20'0 0.0
2017-Aug-08 09:55N 68°01' E 015°20'0 0.0
2017-Aug-08 09:28N 68°01' E 015°20'0 0.0
2017-Aug-08 08:55N 68°01' E 015°20'0 0.0
2017-Aug-08 08:28N 68°01' E 015°20'0 0.0
2017-Aug-08 07:55N 68°01' E 015°20'0 0.0
2017-Aug-08 07:25N 68°01' E 015°20'0 0.0
2017-Aug-08 06:55N 68°01' E 015°20'0 0.0
2017-Aug-08 06:25N 68°01' E 015°20'0 0.0
2017-Aug-08 05:58N 68°01' E 015°20'0 0.0
2017-Aug-08 05:28N 68°01' E 015°20'0 0.0
2017-Aug-08 04:55N 68°01' E 015°20'0 0.0
2017-Aug-08 04:28N 68°01' E 015°20'0 0.0
2017-Aug-08 03:58N 68°01' E 015°20'0 0.0
2017-Aug-08 03:25N 68°01' E 015°20'0 0.0
2017-Aug-08 02:55N 68°01' E 015°20'0 0.0
2017-Aug-08 02:25N 68°01' E 015°20'0 0.0
2017-Aug-08 01:58N 68°01' E 015°20'0 0.0
2017-Aug-08 01:25N 68°01' E 015°20'  

Dump ship's entire track history